GBMYG LFGJ-LFLJ
Flight info
| Callsign | GBMYG |
|---|---|
| Flight time | N/A |
| Altitude | 8000 |
| Route | 463344N0053030E/N0109F090 461025N0054756E 454832N0055419E |
| Aircraft | C172/L-SFG/C |
Departure
| Time | 2026-04-15 17:49 |
|---|---|
| Airport | Dole Tavaux Airport (LFGJ) |
Arrival
| Time | N/A |
|---|---|
| Airport | Courchevel Altiport (LFLJ) |
| Time | Latitude | Longitude | Altitude | Speed | Heading |
|---|---|---|---|---|---|
| 2026-04-15 17:46 | 47.04026 | 5.42681 | 645 ft | 0 kts | 219° |
| 2026-04-15 17:47 | 47.04007 | 5.42676 | 645 ft | 5 kts | 174° |
| 2026-04-15 17:47 | 47.03947 | 5.42709 | 645 ft | 12 kts | 152° |
| 2026-04-15 17:47 | 47.03931 | 5.42786 | 645 ft | 0 kts | 58° |
| 2026-04-15 17:48 | 47.03948 | 5.42822 | 646 ft | 21 kts | 56° |
| 2026-04-15 17:48 | 47.04125 | 5.43188 | 649 ft | 64 kts | 55° |
| 2026-04-15 17:48 | 47.04410 | 5.43764 | 769 ft | 72 kts | 53° |
| 2026-04-15 17:48 | 47.04716 | 5.44359 | 938 ft | 73 kts | 52° |
| 2026-04-15 17:49 | 47.05026 | 5.44965 | 1113 ft | 74 kts | 66° |
| 2026-04-15 17:49 | 47.04967 | 5.45716 | 1266 ft | 80 kts | 124° |
| 2026-04-15 17:49 | 47.04491 | 5.46092 | 1411 ft | 83 kts | 180° |
| 2026-04-15 17:49 | 47.03955 | 5.45889 | 1614 ft | 77 kts | 202° |
| 2026-04-15 17:50 | 47.03453 | 5.45606 | 1792 ft | 76 kts | 207° |
| 2026-04-15 17:50 | 47.02966 | 5.45294 | 1915 ft | 78 kts | 211° |
| 2026-04-15 17:50 | 47.02481 | 5.44945 | 2071 ft | 78 kts | 211° |
| 2026-04-15 17:50 | 47.01992 | 5.44583 | 2234 ft | 79 kts | 213° |
| 2026-04-15 17:51 | 47.01509 | 5.44181 | 2404 ft | 80 kts | 215° |
| 2026-04-15 17:51 | 47.01042 | 5.43760 | 2588 ft | 78 kts | 217° |
| 2026-04-15 17:51 | 47.00580 | 5.43342 | 2784 ft | 77 kts | 217° |
| 2026-04-15 17:51 | 47.00131 | 5.42927 | 2964 ft | 76 kts | 218° |
| 2026-04-15 17:52 | 46.99688 | 5.42496 | 3094 ft | 80 kts | 212° |
| 2026-04-15 17:52 | 46.99145 | 5.42371 | 3285 ft | 80 kts | 178° |
| 2026-04-15 17:52 | 46.98596 | 5.42511 | 3451 ft | 80 kts | 169° |
| 2026-04-15 17:52 | 46.98028 | 5.42626 | 3577 ft | 84 kts | 179° |
| 2026-04-15 17:53 | 46.97444 | 5.42702 | 3723 ft | 87 kts | 177° |
| 2026-04-15 17:53 | 46.96758 | 5.42808 | 3697 ft | 110 kts | 174° |
| 2026-04-15 17:53 | 46.95979 | 5.42972 | 3695 ft | 114 kts | 173° |
| 2026-04-15 17:53 | 46.95178 | 5.43137 | 3700 ft | 117 kts | 174° |
| 2026-04-15 17:54 | 46.94363 | 5.43302 | 3706 ft | 120 kts | 174° |
| 2026-04-15 17:54 | 46.93529 | 5.43468 | 3709 ft | 122 kts | 174° |
| 2026-04-15 17:54 | 46.92695 | 5.43635 | 3711 ft | 121 kts | 174° |
| 2026-04-15 17:54 | 46.91863 | 5.43800 | 3712 ft | 121 kts | 174° |
| 2026-04-15 17:55 | 46.91023 | 5.43966 | 3714 ft | 122 kts | 174° |
| 2026-04-15 17:55 | 46.90179 | 5.44133 | 3714 ft | 122 kts | 174° |
| 2026-04-15 17:55 | 46.89349 | 5.44299 | 3712 ft | 122 kts | 174° |
| 2026-04-15 17:55 | 46.88514 | 5.44465 | 3711 ft | 121 kts | 174° |
| 2026-04-15 17:56 | 46.87683 | 5.44629 | 3710 ft | 121 kts | 174° |
| 2026-04-15 17:56 | 46.86850 | 5.44794 | 3705 ft | 120 kts | 173° |
| 2026-04-15 17:56 | 46.86026 | 5.44958 | 3708 ft | 120 kts | 174° |
| 2026-04-15 17:56 | 46.85475 | 5.45065 | 3710 ft | 120 kts | 174° |
| 2026-04-15 17:57 | 46.84643 | 5.45229 | 3709 ft | 120 kts | 174° |
| 2026-04-15 17:57 | 46.83816 | 5.45393 | 3714 ft | 120 kts | 174° |
| 2026-04-15 17:57 | 46.82983 | 5.45557 | 3709 ft | 120 kts | 174° |
| 2026-04-15 17:57 | 46.82154 | 5.45722 | 3710 ft | 121 kts | 174° |
| 2026-04-15 17:58 | 46.81322 | 5.45887 | 3709 ft | 121 kts | 174° |
| 2026-04-15 17:58 | 46.80489 | 5.46051 | 3709 ft | 121 kts | 174° |
| 2026-04-15 17:58 | 46.79651 | 5.46216 | 3707 ft | 121 kts | 174° |
| 2026-04-15 17:58 | 46.78820 | 5.46381 | 3708 ft | 120 kts | 174° |
| 2026-04-15 17:59 | 46.78004 | 5.46543 | 3710 ft | 120 kts | 174° |
| 2026-04-15 17:59 | 46.77167 | 5.46708 | 3710 ft | 122 kts | 174° |
| 2026-04-15 17:59 | 46.76330 | 5.46871 | 3710 ft | 121 kts | 174° |
| 2026-04-15 17:59 | 46.75495 | 5.47036 | 3712 ft | 121 kts | 174° |
| 2026-04-15 18:00 | 46.74656 | 5.47201 | 3714 ft | 122 kts | 175° |
| 2026-04-15 18:00 | 46.73815 | 5.47367 | 3715 ft | 122 kts | 174° |
| 2026-04-15 18:00 | 46.72967 | 5.47533 | 3716 ft | 123 kts | 175° |
| 2026-04-15 18:00 | 46.72131 | 5.47698 | 3714 ft | 123 kts | 175° |
| 2026-04-15 18:01 | 46.71279 | 5.47866 | 3718 ft | 124 kts | 174° |
| 2026-04-15 18:01 | 46.70422 | 5.48034 | 3719 ft | 124 kts | 174° |
| 2026-04-15 18:01 | 46.69570 | 5.48202 | 3716 ft | 123 kts | 174° |
| 2026-04-15 18:01 | 46.68719 | 5.48371 | 3717 ft | 124 kts | 174° |
| 2026-04-15 18:02 | 46.67863 | 5.48539 | 3718 ft | 124 kts | 174° |
| 2026-04-15 18:02 | 46.67012 | 5.48707 | 3717 ft | 123 kts | 174° |
| 2026-04-15 18:02 | 46.66161 | 5.48873 | 3719 ft | 123 kts | 174° |
| 2026-04-15 18:02 | 46.65311 | 5.49040 | 3717 ft | 122 kts | 174° |
| 2026-04-15 18:03 | 46.64476 | 5.49206 | 3715 ft | 122 kts | 174° |
| 2026-04-15 18:03 | 46.63626 | 5.49363 | 3715 ft | 123 kts | 174° |
| 2026-04-15 18:03 | 46.62775 | 5.49544 | 3713 ft | 123 kts | 174° |
| 2026-04-15 18:03 | 46.61934 | 5.49784 | 3703 ft | 124 kts | 153° |
| 2026-04-15 18:04 | 46.61324 | 5.50657 | 3712 ft | 123 kts | 133° |
| 2026-04-15 18:04 | 46.60729 | 5.51553 | 3729 ft | 122 kts | 133° |
| 2026-04-15 18:04 | 46.60152 | 5.52419 | 3771 ft | 119 kts | 134° |
| 2026-04-15 18:04 | 46.59577 | 5.53270 | 3819 ft | 117 kts | 134° |
| 2026-04-15 18:05 | 46.59008 | 5.54113 | 3869 ft | 116 kts | 134° |
| 2026-04-15 18:05 | 46.58443 | 5.54948 | 3921 ft | 116 kts | 134° |
| 2026-04-15 18:05 | 46.57872 | 5.55792 | 3975 ft | 117 kts | 134° |
| 2026-04-15 18:05 | 46.57296 | 5.56643 | 4022 ft | 118 kts | 134° |
| 2026-04-15 18:06 | 46.56721 | 5.57490 | 4062 ft | 118 kts | 134° |
| 2026-04-15 18:06 | 46.56152 | 5.58328 | 4108 ft | 117 kts | 134° |
| 2026-04-15 18:06 | 46.55583 | 5.59168 | 4166 ft | 115 kts | 134° |
| 2026-04-15 18:06 | 46.55020 | 5.59996 | 4220 ft | 115 kts | 134° |
| 2026-04-15 18:07 | 46.54458 | 5.60825 | 4271 ft | 115 kts | 134° |
| 2026-04-15 18:07 | 46.53898 | 5.61651 | 4324 ft | 115 kts | 134° |
| 2026-04-15 18:07 | 46.53331 | 5.62486 | 4375 ft | 116 kts | 134° |
| 2026-04-15 18:07 | 46.52775 | 5.63305 | 4423 ft | 115 kts | 134° |
| 2026-04-15 18:08 | 46.52210 | 5.64137 | 4470 ft | 114 kts | 134° |
| 2026-04-15 18:08 | 46.51664 | 5.64941 | 4528 ft | 113 kts | 135° |
| 2026-04-15 18:08 | 46.51112 | 5.65750 | 4577 ft | 112 kts | 134° |
| 2026-04-15 18:08 | 46.50561 | 5.66561 | 4624 ft | 113 kts | 134° |
| 2026-04-15 18:09 | 46.50014 | 5.67364 | 4676 ft | 111 kts | 134° |
| 2026-04-15 18:09 | 46.49471 | 5.68163 | 4730 ft | 110 kts | 134° |
| 2026-04-15 18:09 | 46.48934 | 5.68950 | 4784 ft | 109 kts | 135° |
| 2026-04-15 18:09 | 46.48397 | 5.69739 | 4833 ft | 110 kts | 135° |
| 2026-04-15 18:10 | 46.47862 | 5.70523 | 4885 ft | 109 kts | 135° |
| 2026-04-15 18:10 | 46.47328 | 5.71305 | 4938 ft | 109 kts | 134° |
| 2026-04-15 18:10 | 46.46789 | 5.72097 | 4992 ft | 111 kts | 135° |
| 2026-04-15 18:10 | 46.46241 | 5.72900 | 5044 ft | 113 kts | 135° |
| 2026-04-15 18:11 | 46.45687 | 5.73713 | 5097 ft | 113 kts | 135° |
| 2026-04-15 18:11 | 46.45130 | 5.74528 | 5146 ft | 114 kts | 135° |
| 2026-04-15 18:11 | 46.44574 | 5.75343 | 5195 ft | 113 kts | 135° |
| 2026-04-15 18:11 | 46.44026 | 5.76145 | 5243 ft | 113 kts | 135° |
| 2026-04-15 18:12 | 46.43472 | 5.76956 | 5296 ft | 113 kts | 136° |
| 2026-04-15 18:12 | 46.42920 | 5.77766 | 5347 ft | 112 kts | 136° |
| 2026-04-15 18:12 | 46.42385 | 5.78549 | 5395 ft | 113 kts | 136° |
| 2026-04-15 18:12 | 46.41812 | 5.79387 | 5443 ft | 114 kts | 134° |
| 2026-04-15 18:13 | 46.41258 | 5.80194 | 5495 ft | 113 kts | 135° |
| 2026-04-15 18:13 | 46.40703 | 5.81006 | 5546 ft | 113 kts | 135° |
| 2026-04-15 18:13 | 46.40148 | 5.81818 | 5585 ft | 114 kts | 135° |
| 2026-04-15 18:14 | 46.39029 | 5.83454 | 5685 ft | 113 kts | 135° |
| 2026-04-15 18:14 | 46.38481 | 5.84253 | 5733 ft | 113 kts | 135° |
| 2026-04-15 18:14 | 46.37929 | 5.85062 | 5783 ft | 113 kts | 135° |
| 2026-04-15 18:14 | 46.37373 | 5.85869 | 5836 ft | 113 kts | 136° |
| 2026-04-15 18:15 | 46.36817 | 5.86680 | 5886 ft | 113 kts | 136° |
| 2026-04-15 18:15 | 46.36264 | 5.87487 | 5940 ft | 113 kts | 136° |
| 2026-04-15 18:15 | 46.35713 | 5.88290 | 5987 ft | 112 kts | 136° |
| 2026-04-15 18:15 | 46.35169 | 5.89080 | 6035 ft | 112 kts | 136° |
| 2026-04-15 18:16 | 46.34624 | 5.89876 | 6084 ft | 111 kts | 136° |
| 2026-04-15 18:16 | 46.34084 | 5.90665 | 6132 ft | 110 kts | 136° |
| 2026-04-15 18:16 | 46.33539 | 5.91459 | 6183 ft | 112 kts | 137° |
| 2026-04-15 18:16 | 46.32981 | 5.92270 | 6242 ft | 115 kts | 136° |
| 2026-04-15 18:17 | 46.32411 | 5.93099 | 6299 ft | 117 kts | 137° |
| 2026-04-15 18:17 | 46.31835 | 5.93937 | 6348 ft | 118 kts | 137° |
| 2026-04-15 18:17 | 46.31256 | 5.94775 | 6402 ft | 118 kts | 137° |
| 2026-04-15 18:17 | 46.30665 | 5.95636 | 6454 ft | 120 kts | 137° |
| 2026-04-15 18:18 | 46.30079 | 5.96488 | 6510 ft | 121 kts | 137° |
| 2026-04-15 18:18 | 46.29481 | 5.97355 | 6563 ft | 122 kts | 137° |
| 2026-04-15 18:18 | 46.28881 | 5.98227 | 6612 ft | 122 kts | 137° |
| 2026-04-15 18:18 | 46.28286 | 5.99094 | 6657 ft | 121 kts | 137° |
| 2026-04-15 18:19 | 46.27694 | 5.99950 | 6701 ft | 119 kts | 137° |
| 2026-04-15 18:19 | 46.27101 | 6.00813 | 6699 ft | 122 kts | 137° |
| 2026-04-15 18:19 | 46.26495 | 6.01690 | 6702 ft | 124 kts | 136° |
| 2026-04-15 18:19 | 46.25886 | 6.02573 | 6703 ft | 125 kts | 137° |
| 2026-04-15 18:20 | 46.25240 | 6.03509 | 6703 ft | 125 kts | 136° |
| 2026-04-15 18:20 | 46.24653 | 6.04359 | 6704 ft | 126 kts | 136° |
| 2026-04-15 18:20 | 46.24042 | 6.05244 | 6703 ft | 126 kts | 136° |
| 2026-04-15 18:20 | 46.23422 | 6.06142 | 6704 ft | 126 kts | 136° |
| 2026-04-15 18:21 | 46.22802 | 6.07041 | 6703 ft | 126 kts | 137° |
| 2026-04-15 18:21 | 46.22183 | 6.07938 | 6703 ft | 126 kts | 136° |
| 2026-04-15 18:21 | 46.21563 | 6.08833 | 6703 ft | 126 kts | 136° |
| 2026-04-15 18:21 | 46.20944 | 6.09728 | 6703 ft | 126 kts | 136° |
| 2026-04-15 18:22 | 46.20327 | 6.10619 | 6702 ft | 125 kts | 136° |
| 2026-04-15 18:22 | 46.19711 | 6.11510 | 6703 ft | 125 kts | 136° |
| 2026-04-15 18:22 | 46.19094 | 6.12400 | 6702 ft | 125 kts | 136° |
| 2026-04-15 18:22 | 46.18488 | 6.13277 | 6701 ft | 125 kts | 136° |
| 2026-04-15 18:23 | 46.17874 | 6.14165 | 6701 ft | 125 kts | 136° |
| 2026-04-15 18:23 | 46.17258 | 6.15053 | 6701 ft | 125 kts | 136° |
| 2026-04-15 18:23 | 46.16643 | 6.15939 | 6701 ft | 125 kts | 136° |
| 2026-04-15 18:23 | 46.16028 | 6.16825 | 6700 ft | 125 kts | 136° |
| 2026-04-15 18:24 | 46.15414 | 6.17712 | 6700 ft | 125 kts | 136° |
| 2026-04-15 18:24 | 46.14799 | 6.18598 | 6701 ft | 125 kts | 136° |
| 2026-04-15 18:24 | 46.14289 | 6.19600 | 6694 ft | 125 kts | 112° |
| 2026-04-15 18:24 | 46.13965 | 6.20748 | 6697 ft | 125 kts | 113° |
| 2026-04-15 18:25 | 46.13635 | 6.21909 | 6697 ft | 125 kts | 113° |
| 2026-04-15 18:25 | 46.13305 | 6.23072 | 6696 ft | 125 kts | 113° |
| 2026-04-15 18:25 | 46.12976 | 6.24235 | 6696 ft | 125 kts | 113° |
| 2026-04-15 18:25 | 46.12646 | 6.25398 | 6697 ft | 125 kts | 113° |
| 2026-04-15 18:26 | 46.12317 | 6.26559 | 6697 ft | 125 kts | 113° |
| 2026-04-15 18:26 | 46.11986 | 6.27720 | 6699 ft | 125 kts | 113° |
| 2026-04-15 18:26 | 46.11653 | 6.28889 | 6699 ft | 125 kts | 113° |
| 2026-04-15 18:26 | 46.11325 | 6.30042 | 6699 ft | 125 kts | 113° |
| 2026-04-15 18:27 | 46.10994 | 6.31203 | 6700 ft | 125 kts | 113° |
| 2026-04-15 18:27 | 46.10664 | 6.32364 | 6699 ft | 125 kts | 113° |
| 2026-04-15 18:27 | 46.10334 | 6.33528 | 6699 ft | 125 kts | 113° |
| 2026-04-15 18:27 | 46.10009 | 6.34673 | 6699 ft | 125 kts | 113° |
| 2026-04-15 18:28 | 46.09678 | 6.35839 | 6701 ft | 125 kts | 113° |
| 2026-04-15 18:28 | 46.09347 | 6.36998 | 6700 ft | 125 kts | 113° |
| 2026-04-15 18:28 | 46.09016 | 6.38160 | 6698 ft | 126 kts | 113° |
| 2026-04-15 18:28 | 46.08807 | 6.39397 | 6645 ft | 129 kts | 92° |
| 2026-04-15 18:29 | 46.08768 | 6.40678 | 6593 ft | 124 kts | 93° |
| 2026-04-15 18:29 | 46.08731 | 6.41886 | 6537 ft | 120 kts | 93° |
| 2026-04-15 18:29 | 46.08694 | 6.43083 | 6480 ft | 118 kts | 93° |
| 2026-04-15 18:29 | 46.08656 | 6.44259 | 6426 ft | 117 kts | 93° |
| 2026-04-15 18:30 | 46.08619 | 6.45425 | 6367 ft | 116 kts | 93° |
| 2026-04-15 18:30 | 46.08499 | 6.46566 | 6318 ft | 115 kts | 109° |
| 2026-04-15 18:30 | 46.08251 | 6.47665 | 6268 ft | 115 kts | 108° |
| 2026-04-15 18:30 | 46.08005 | 6.48768 | 6216 ft | 115 kts | 108° |
| 2026-04-15 18:31 | 46.07759 | 6.49867 | 6165 ft | 115 kts | 108° |
| 2026-04-15 18:31 | 46.07515 | 6.50958 | 6115 ft | 116 kts | 108° |
| 2026-04-15 18:31 | 46.07269 | 6.52062 | 6063 ft | 116 kts | 108° |
| 2026-04-15 18:31 | 46.07022 | 6.53167 | 6012 ft | 116 kts | 108° |
| 2026-04-15 18:32 | 46.06771 | 6.54274 | 5962 ft | 116 kts | 110° |
| 2026-04-15 18:32 | 46.06376 | 6.55281 | 5914 ft | 116 kts | 129° |
| 2026-04-15 18:32 | 46.05886 | 6.56192 | 5861 ft | 116 kts | 128° |
| 2026-04-15 18:32 | 46.05386 | 6.57116 | 5814 ft | 117 kts | 128° |
| 2026-04-15 18:33 | 46.04890 | 6.58038 | 5815 ft | 118 kts | 128° |
| 2026-04-15 18:33 | 46.04377 | 6.58991 | 5824 ft | 123 kts | 128° |
| 2026-04-15 18:33 | 46.03698 | 6.59719 | 5832 ft | 124 kts | 159° |
| 2026-04-15 18:33 | 46.02896 | 6.60200 | 5835 ft | 125 kts | 158° |
| 2026-04-15 18:34 | 46.02097 | 6.60678 | 5835 ft | 126 kts | 158° |
| 2026-04-15 18:34 | 46.01288 | 6.61161 | 5835 ft | 126 kts | 158° |
| 2026-04-15 18:34 | 46.00470 | 6.61649 | 5835 ft | 127 kts | 158° |
| 2026-04-15 18:34 | 45.99655 | 6.62138 | 5835 ft | 127 kts | 158° |
| 2026-04-15 18:35 | 45.98818 | 6.62543 | 5836 ft | 127 kts | 165° |
| 2026-04-15 18:35 | 45.97966 | 6.62888 | 5835 ft | 127 kts | 165° |
| 2026-04-15 18:35 | 45.97116 | 6.63245 | 5794 ft | 127 kts | 165° |
| 2026-04-15 18:35 | 45.96273 | 6.63614 | 5793 ft | 127 kts | 165° |
| 2026-04-15 18:36 | 45.95413 | 6.63882 | 5796 ft | 126 kts | 173° |
| 2026-04-15 18:36 | 45.94558 | 6.64065 | 5796 ft | 126 kts | 173° |
| 2026-04-15 18:36 | 45.93694 | 6.64248 | 5794 ft | 125 kts | 174° |
| 2026-04-15 18:36 | 45.92826 | 6.64272 | 5793 ft | 124 kts | 185° |
| 2026-04-15 18:37 | 45.91962 | 6.64226 | 5787 ft | 124 kts | 184° |
| 2026-04-15 18:37 | 45.91101 | 6.64155 | 5790 ft | 124 kts | 188° |
| 2026-04-15 18:37 | 45.90542 | 6.63998 | 5791 ft | 123 kts | 195° |
| 2026-04-15 18:37 | 45.89707 | 6.63706 | 5793 ft | 123 kts | 197° |
| 2026-04-15 18:38 | 45.88904 | 6.63264 | 5798 ft | 124 kts | 203° |
| 2026-04-15 18:38 | 45.88105 | 6.62798 | 5798 ft | 124 kts | 203° |
| 2026-04-15 18:38 | 45.87304 | 6.62336 | 5796 ft | 124 kts | 200° |
| 2026-04-15 18:38 | 45.86442 | 6.62288 | 5790 ft | 125 kts | 182° |
| 2026-04-15 18:39 | 45.85565 | 6.62258 | 5779 ft | 125 kts | 177° |
| 2026-04-15 18:39 | 45.84738 | 6.62543 | 5837 ft | 121 kts | 160° |
| 2026-04-15 18:39 | 45.83958 | 6.62942 | 5862 ft | 121 kts | 161° |
| 2026-04-15 18:39 | 45.83180 | 6.63407 | 5812 ft | 122 kts | 156° |
| 2026-04-15 18:40 | 45.82426 | 6.63932 | 5684 ft | 118 kts | 154° |
| 2026-04-15 18:40 | 45.81889 | 6.64690 | 5683 ft | 104 kts | 99° |
| 2026-04-15 18:40 | 45.82265 | 6.65395 | 5558 ft | 101 kts | 360° |
| 2026-04-15 18:40 | 45.82940 | 6.65062 | 5248 ft | 103 kts | 339° |
| 2026-04-15 18:41 | 45.83578 | 6.64717 | 5081 ft | 92 kts | 340° |
| 2026-04-15 18:41 | 45.83844 | 6.64135 | 4966 ft | 77 kts | 244° |
| 2026-04-15 18:41 | 45.83405 | 6.63998 | 4851 ft | 74 kts | 135° |
| 2026-04-15 18:41 | 45.83024 | 6.64431 | 4769 ft | 70 kts | 150° |
| 2026-04-15 18:42 | 45.82582 | 6.64756 | 4763 ft | 73 kts | 155° |
| 2026-04-15 18:42 | 45.82190 | 6.65017 | 4826 ft | 40 kts | 155° |
| 2026-04-15 18:42 | 45.82057 | 6.65108 | 4876 ft | 7 kts | 154° |
| 2026-04-15 18:42 | 45.82036 | 6.65091 | 4878 ft | 4 kts | 252° |
| 2026-04-15 18:43 | 45.82029 | 6.65063 | 4879 ft | 8 kts | 266° |
| 2026-04-15 18:43 | 45.82019 | 6.65066 | 4880 ft | 4 kts | 53° |
| 2026-04-15 18:43 | 45.82021 | 6.65068 | 4879 ft | 0 kts | 52° |